Time;durP1;ratioP1;P1;durP2;ratioP2;P2;SDS_P1;SDS_P2;PMS_P1;PMS_P2;Temp;Humidity;BMP_temperature;BMP_pressure;BME280_temperature;BME280_humidity;BME280_pressure;Samples;Min_cycle;Max_cycle;Signal;HPM_P1;HPM_P2
2023/10/10 00:01:07;;;;;;;1.37;1.27;;;16.60;99.90;;;;;;6127727;23;20593;-92
2023/10/10 00:03:39;;;;;;;1.80;1.13;;;16.60;99.90;;;;;;6127889;23;20159;-91
2023/10/10 00:06:09;;;;;;;2.40;1.30;;;16.70;99.90;;;;;;6151342;23;20195;-92
2023/10/10 00:08:43;;;;;;;1.33;0.90;;;16.70;99.90;;;;;;6128106;23;20203;-92
2023/10/10 00:11:18;;;;;;;3.90;1.30;;;16.80;99.90;;;;;;6128609;23;20195;-92
2023/10/10 00:13:46;;;;;;;2.07;1.40;;;16.70;99.90;;;;;;6151726;23;20194;-91
2023/10/10 00:16:25;;;;;;;3.50;0.90;;;16.70;99.90;;;;;;6127454;23;20159;-92
2023/10/10 00:18:51;;;;;;;2.73;1.53;;;16.80;99.90;;;;;;6129517;23;20194;-92
2023/10/10 00:21:28;;;;;;;1.40;1.27;;;16.80;99.90;;;;;;6126817;23;20202;-92
2023/10/10 00:23:55;;;;;;;4.10;1.47;;;16.70;99.90;;;;;;6151580;23;20261;-91
2023/10/10 00:26:22;;;;;;;1.20;1.10;;;16.80;99.90;;;;;;6126779;23;20544;-92
2023/10/10 00:28:56;;;;;;;1.40;1.30;;;16.70;99.90;;;;;;6150706;23;20211;-92
2023/10/10 00:31:28;;;;;;;1.77;1.47;;;16.70;99.90;;;;;;6129282;23;20713;-92
2023/10/10 00:33:55;;;;;;;2.47;1.77;;;16.70;99.90;;;;;;6151077;23;20500;-93
2023/10/10 00:36:22;;;;;;;1.40;1.30;;;16.70;99.90;;;;;;6127746;23;20163;-91
2023/10/10 00:39:37;;;;;;;0.83;0.83;;;16.80;99.90;;;;;;6151587;23;20192;-93
2023/10/10 00:42:00;;;;;;;1.97;1.40;;;16.70;99.90;;;;;;6147156;23;20199;-92
2023/10/10 00:44:27;;;;;;;6.20;1.63;;;16.60;99.90;;;;;;6151929;23;20270;-92
2023/10/10 00:46:58;;;;;;;1.83;1.03;;;16.60;99.90;;;;;;6127616;23;20593;-92
2023/10/10 00:49:31;;;;;;;1.67;1.10;;;16.70;99.90;;;;;;6151283;23;20726;-92
2023/10/10 00:52:06;;;;;;;4.97;1.50;;;16.60;99.90;;;;;;6150830;23;20158;-91
2023/10/10 00:54:39;;;;;;;2.47;1.87;;;16.50;99.90;;;;;;6152871;23;20150;-92
2023/10/10 00:57:14;;;;;;;3.00;1.67;;;16.50;99.90;;;;;;6151814;23;20527;-92
2023/10/10 00:59:44;;;;;;;2.23;1.60;;;16.40;99.90;;;;;;6151326;23;20203;-93
2023/10/10 01:02:12;;;;;;;1.83;1.33;;;16.30;99.90;;;;;;6151848;23;20199;-92
2023/10/10 01:04:39;;;;;;;2.27;1.30;;;16.20;99.90;;;;;;6150728;23;20261;-93
2023/10/10 01:07:10;;;;;;;2.40;1.70;;;16.20;99.90;;;;;;6151751;23;20218;-92
2023/10/10 01:09:51;;;;;;;3.63;1.27;;;16.20;99.90;;;;;;6152009;23;20258;-92
2023/10/10 01:12:17;;;;;;;1.83;1.10;;;16.10;99.90;;;;;;6151145;23;20198;-92
2023/10/10 01:14:43;;;;;;;1.37;0.80;;;16.10;99.90;;;;;;6126167;23;20207;-91
2023/10/10 01:17:12;;;;;;;2.57;1.37;;;16.00;99.90;;;;;;6127173;23;20199;-92
2023/10/10 01:19:38;;;;;;;2.00;1.60;;;16.00;99.90;;;;;;6151370;23;20191;-92
2023/10/10 01:22:12;;;;;;;4.40;1.60;;;16.00;99.90;;;;;;6126564;23;20229;-93
2023/10/10 01:24:40;;;;;;;1.30;1.20;;;15.90;99.90;;;;;;6129204;23;20170;-91
2023/10/10 01:27:15;;;;;;;1.20;0.97;;;15.80;99.90;;;;;;6150669;23;20596;-93
2023/10/10 01:29:41;;;;;;;2.63;2.27;;;15.70;99.90;;;;;;6128381;23;20230;-92
2023/10/10 01:32:10;;;;;;;2.13;1.50;;;15.70;99.90;;;;;;6151027;23;20198;-92
2023/10/10 01:34:43;;;;;;;6.23;2.23;;;15.60;99.90;;;;;;6151305;23;20675;-92
2023/10/10 01:37:28;;;;;;;1.87;1.77;;;15.60;99.90;;;;;;6127596;23;20156;-91
2023/10/10 01:40:17;;;;;;;2.23;1.70;;;15.60;99.90;;;;;;6151854;23;20584;-91
2023/10/10 01:42:59;;;;;;;8.90;1.80;;;15.50;99.90;;;;;;6151220;23;20144;-92
2023/10/10 01:45:29;;;;;;;3.93;2.60;;;15.40;99.90;;;;;;6133256;23;20655;-92
2023/10/10 01:47:58;;;;;;;2.57;1.93;;;15.40;99.90;;;;;;6150454;23;20203;-92
2023/10/10 01:50:26;;;;;;;2.57;1.60;;;15.30;99.90;;;;;;6126550;23;20233;-91
2023/10/10 01:52:55;;;;;;;2.87;2.30;;;15.30;99.90;;;;;;6126642;23;20195;-93
2023/10/10 01:55:24;;;;;;;2.20;1.60;;;15.30;99.90;;;;;;6151909;23;20318;-92
2023/10/10 01:57:53;;;;;;;3.03;1.70;;;15.30;99.90;;;;;;6151960;23;20160;-92
2023/10/10 02:00:25;;;;;;;6.17;2.50;;;15.30;99.90;;;;;;6152510;23;20187;-92
2023/10/10 02:02:55;;;;;;;3.27;2.40;;;15.30;99.90;;;;;;6128406;23;20192;-92
2023/10/10 02:08:09;;;;;;;3.40;2.27;;;15.40;99.90;;;;;;6152612;23;20293;-92
2023/10/10 02:10:45;;;;;;;2.90;1.73;;;15.50;99.90;;;;;;6127528;23;20199;-92
2023/10/10 02:13:11;;;;;;;3.53;1.67;;;15.50;99.90;;;;;;6127025;23;20148;-92
2023/10/10 02:15:39;;;;;;;2.70;1.87;;;15.50;99.90;;;;;;6151413;23;20194;-92
2023/10/10 02:18:13;;;;;;;10.50;2.70;;;15.60;99.90;;;;;;6149943;23;20234;-92
2023/10/10 02:23:24;;;;;;;4.60;2.27;;;15.70;99.90;;;;;;6126942;23;20206;-92
2023/10/10 02:25:53;;;;;;;3.00;2.10;;;15.80;99.90;;;;;;6127567;23;20199;-92
2023/10/10 02:30:48;;;;;;;2.93;1.70;;;15.80;99.90;;;;;;6126202;23;20171;-92
2023/10/10 02:33:16;;;;;;;3.27;2.37;;;15.90;99.90;;;;;;6149687;23;20211;-91
2023/10/10 02:35:54;;;;;;;3.90;2.97;;;15.90;99.90;;;;;;6126173;23;20203;-93
2023/10/10 02:38:31;;;;;;;18.37;2.40;;;15.90;99.90;;;;;;6149878;23;20195;-91
2023/10/10 02:46:47;;;;;;;3.57;2.43;;;16.00;99.90;;;;;;6127035;23;20187;-91
2023/10/10 02:49:23;;;;;;;3.93;2.67;;;16.00;99.90;;;;;;6126317;23;20203;-93
2023/10/10 02:51:51;;;;;;;3.67;3.03;;;16.00;99.90;;;;;;6127343;23;20256;-93
2023/10/10 02:54:43;;;;;;;6.50;3.20;;;16.00;99.90;;;;;;6149589;23;20218;-90
2023/10/10 02:59:59;;;;;;;4.70;2.67;;;16.10;99.90;;;;;;6150195;23;20195;-92
2023/10/10 03:02:41;;;;;;;3.50;2.13;;;16.10;99.90;;;;;;6126013;23;20215;-92
2023/10/10 03:05:14;;;;;;;4.73;2.90;;;16.10;99.90;;;;;;6149431;23;20199;-93
2023/10/10 03:07:42;;;;;;;3.30;2.67;;;16.10;99.90;;;;;;6126675;23;20680;-91
2023/10/10 03:12:37;;;;;;;4.40;3.00;;;16.10;99.90;;;;;;6150489;23;20250;-92
2023/10/10 03:15:14;;;;;;;5.03;2.73;;;16.20;99.90;;;;;;6127360;23;20199;-92
2023/10/10 03:17:48;;;;;;;5.40;2.57;;;16.20;99.90;;;;;;6151239;23;20674;-91
2023/10/10 03:25:54;;;;;;;4.47;3.07;;;16.20;99.90;;;;;;6151891;23;20191;-92
2023/10/10 03:38:57;;;;;;;10.27;4.50;;;16.30;99.90;;;;;;6151182;23;20199;-92
2023/10/10 05:25:22;;;;;;;16.40;5.90;;;15.90;99.90;;;;;;6129760;23;20187;-93
2023/10/10 05:27:58;;;;;;;12.93;5.97;;;15.70;99.90;;;;;;6151127;23;20148;-92
2023/10/10 05:30:25;;;;;;;10.67;6.03;;;15.80;99.90;;;;;;6129288;23;20659;-92
2023/10/10 05:33:04;;;;;;;10.40;6.20;;;15.70;99.90;;;;;;6125754;23;20195;-92
2023/10/10 05:35:43;;;;;;;12.87;6.23;;;15.70;99.90;;;;;;6150373;23;20273;-92
2023/10/10 05:38:09;;;;;;;12.90;5.53;;;15.80;99.90;;;;;;6149491;23;20738;-92
2023/10/10 05:40:38;;;;;;;12.30;5.37;;;15.80;99.90;;;;;;6125086;23;20194;-92
2023/10/10 05:43:19;;;;;;;13.67;6.43;;;15.70;99.90;;;;;;6150042;23;20167;-91
2023/10/10 05:45:45;;;;;;;10.73;6.97;;;15.70;99.90;;;;;;6150873;23;20147;-91
2023/10/10 05:48:12;;;;;;;9.23;5.73;;;15.70;99.90;;;;;;6150236;23;20632;-91
2023/10/10 05:50:40;;;;;;;13.90;6.33;;;15.80;99.90;;;;;;6150282;23;20229;-93
2023/10/10 05:53:07;;;;;;;12.53;6.43;;;15.80;99.90;;;;;;6150095;23;20191;-92
2023/10/10 05:55:35;;;;;;;10.77;5.90;;;15.70;99.90;;;;;;6150186;23;20567;-93
2023/10/10 05:58:02;;;;;;;16.73;7.47;;;15.80;99.90;;;;;;6150081;23;20611;-91
2023/10/10 06:00:32;;;;;;;15.73;8.63;;;15.90;99.90;;;;;;6126946;23;20592;-92
2023/10/10 06:02:58;;;;;;;16.27;7.90;;;15.90;99.90;;;;;;6149886;23;20279;-92
2023/10/10 06:05:24;;;;;;;20.17;10.20;;;15.80;99.90;;;;;;6125033;23;20203;-91
2023/10/10 06:07:50;;;;;;;15.77;7.67;;;15.90;99.90;;;;;;6125313;23;20257;-90
2023/10/10 06:10:16;;;;;;;21.93;8.67;;;15.90;99.90;;;;;;6149834;23;20218;-94
2023/10/10 06:12:47;;;;;;;14.37;7.00;;;15.90;99.90;;;;;;6150529;23;20171;-92
2023/10/10 06:15:17;;;;;;;13.73;6.90;;;16.00;99.90;;;;;;6125849;23;20349;-93
2023/10/10 06:18:08;;;;;;;29.73;8.57;;;16.00;99.90;;;;;;6149857;23;20208;-92
2023/10/10 06:20:41;;;;;;;19.40;9.50;;;16.20;99.90;;;;;;6129757;23;20207;-94
2023/10/10 06:23:17;;;;;;;17.87;8.57;;;16.20;99.90;;;;;;6125149;23;20207;-90
2023/10/10 06:25:43;;;;;;;19.43;9.40;;;16.30;99.90;;;;;;6149473;23;20513;-91
2023/10/10 06:28:26;;;;;;;21.50;9.20;;;16.30;99.90;;;;;;6149677;23;20163;-92
2023/10/10 06:30:59;;;;;;;22.97;9.70;;;16.30;99.90;;;;;;6150099;23;20150;-91
2023/10/10 06:33:28;;;;;;;14.67;8.07;;;16.40;99.90;;;;;;6126374;23;20210;-93
2023/10/10 06:36:18;;;;;;;15.30;8.03;;;16.50;99.90;;;;;;6149437;23;20195;-92
2023/10/10 06:38:44;;;;;;;14.67;8.90;;;16.40;99.90;;;;;;6128023;23;20207;-89
2023/10/10 06:41:17;;;;;;;13.17;7.23;;;16.50;99.90;;;;;;6148459;23;20199;-89
2023/10/10 06:43:46;;;;;;;20.30;8.10;;;16.50;99.90;;;;;;6126941;23;20671;-89
2023/10/10 06:46:17;;;;;;;34.67;11.47;;;16.50;99.90;;;;;;6123291;23;20694;-93
2023/10/10 06:48:50;;;;;;;18.57;8.67;;;16.60;99.90;;;;;;6128408;23;20271;-93
2023/10/10 06:51:22;;;;;;;14.80;7.70;;;16.40;99.90;;;;;;6150947;23;20206;-92
2023/10/10 06:53:54;;;;;;;15.73;8.93;;;16.50;99.90;;;;;;6151400;23;20670;-93
2023/10/10 06:56:43;;;;;;;21.33;9.70;;;16.60;99.90;;;;;;6127985;23;20201;-93
2023/10/10 06:59:05;;;;;;;28.60;9.73;;;16.50;99.90;;;;;;6151289;23;20249;-92
2023/10/10 07:01:31;;;;;;;22.37;11.23;;;16.60;99.90;;;;;;6126793;23;20199;-92
2023/10/10 07:04:03;;;;;;;27.17;10.43;;;16.60;99.90;;;;;;6127109;23;20512;-92
2023/10/10 07:06:29;;;;;;;24.47;10.97;;;16.70;99.90;;;;;;6152233;23;20206;-93
2023/10/10 07:11:39;;;;;;;22.73;8.77;;;16.80;99.90;;;;;;6152477;23;20262;-92
2023/10/10 07:14:09;;;;;;;30.40;12.83;;;16.90;99.90;;;;;;6150734;23;20199;-93
2023/10/10 07:16:35;;;;;;;19.10;10.70;;;16.90;99.90;;;;;;6127312;23;21006;-94
2023/10/10 07:19:18;;;;;;;19.93;11.07;;;17.10;99.90;;;;;;6126482;23;20195;-92
2023/10/10 07:21:45;;;;;;;22.60;10.10;;;17.20;99.90;;;;;;6152964;23;20242;-92
2023/10/10 07:24:15;;;;;;;22.33;9.87;;;17.50;99.90;;;;;;6126771;23;20254;-94
2023/10/10 07:26:58;;;;;;;20.50;9.17;;;17.30;99.90;;;;;;6128095;23;20203;-91
2023/10/10 07:29:57;;;;;;;25.63;11.33;;;17.30;99.90;;;;;;6152333;23;20203;-90
2023/10/10 07:32:16;;;;;;;30.57;12.43;;;17.40;99.90;;;;;;6151618;23;20195;-89
2023/10/10 07:34:51;;;;;;;25.07;13.43;;;17.30;99.90;;;;;;6126735;23;20187;-89
2023/10/10 07:37:18;;;;;;;23.10;11.17;;;17.40;99.90;;;;;;6150816;23;20191;-90
2023/10/10 07:39:56;;;;;;;26.37;13.20;;;17.50;99.90;;;;;;6127257;23;20168;-89
2023/10/10 07:42:30;;;;;;;37.97;12.40;;;17.90;99.90;;;;;;6151249;23;20194;-91
2023/10/10 07:44:57;;;;;;;31.77;12.70;;;18.10;99.90;;;;;;6126594;23;20209;-88
2023/10/10 07:47:26;;;;;;;33.40;13.90;;;18.30;99.90;;;;;;6150598;23;20511;-89
2023/10/10 07:49:59;;;;;;;28.07;13.33;;;18.50;99.90;;;;;;6150691;23;20231;-89
2023/10/10 07:52:25;;;;;;;25.97;13.40;;;18.60;99.90;;;;;;6151004;23;20206;-91
2023/10/10 07:54:53;;;;;;;25.00;11.23;;;18.40;99.90;;;;;;6151345;23;20247;-92
2023/10/10 07:57:22;;;;;;;24.93;13.57;;;18.40;99.90;;;;;;6151002;23;20641;-91
2023/10/10 07:59:57;;;;;;;23.80;11.43;;;18.50;99.90;;;;;;6150871;23;20199;-89
2023/10/10 08:04:56;;;;;;;22.07;11.77;;;18.70;99.90;;;;;;6149360;23;20656;-90
2023/10/10 08:07:26;;;;;;;23.17;12.10;;;18.60;99.90;;;;;;6125573;23;20254;-88
2023/10/10 08:12:42;;;;;;;19.10;11.77;;;18.50;99.90;;;;;;6151353;23;20175;-89
2023/10/10 08:15:24;;;;;;;23.07;11.27;;;18.40;99.90;;;;;;6150168;23;20199;-91
2023/10/10 08:17:54;;;;;;;15.60;9.77;;;18.30;99.90;;;;;;6128875;23;20234;-90
2023/10/10 08:23:08;;;;;;;20.00;10.93;;;18.30;99.90;;;;;;6150769;23;20199;-89
2023/10/10 08:25:37;;;;;;;22.20;10.87;;;18.20;99.90;;;;;;6150061;23;20202;-89
2023/10/10 08:28:04;;;;;;;19.47;10.93;;;18.20;99.90;;;;;;6126044;23;20167;-88
2023/10/10 08:30:30;;;;;;;22.50;11.90;;;18.20;99.90;;;;;;6150834;23;20159;-90
2023/10/10 08:32:57;;;;;;;19.50;10.90;;;18.20;99.90;;;;;;6148849;23;20203;-90
2023/10/10 08:35:25;;;;;;;26.43;12.20;;;18.20;99.90;;;;;;6125561;23;20198;-90
2023/10/10 08:37:51;;;;;;;21.10;11.47;;;18.30;99.90;;;;;;6125919;23;20198;-89
2023/10/10 08:40:19;;;;;;;21.07;12.33;;;18.30;99.90;;;;;;6125500;23;20514;-90
2023/10/10 08:42:50;;;;;;;24.60;11.83;;;18.30;99.90;;;;;;6150380;23;20247;-90
2023/10/10 08:45:25;;;;;;;22.93;12.87;;;18.40;99.90;;;;;;6125760;23;20199;-89
2023/10/10 08:48:01;;;;;;;23.03;12.33;;;18.60;99.90;;;;;;6149898;23;20201;-90
2023/10/10 08:50:41;;;;;;;23.87;12.13;;;18.60;99.90;;;;;;6149744;23;20213;-90
2023/10/10 08:53:12;;;;;;;17.47;12.97;;;18.70;99.90;;;;;;6149060;23;20652;-90
2023/10/10 08:55:42;;;;;;;20.47;12.80;;;19.00;99.90;;;;;;6150285;23;20536;-92
2023/10/10 08:58:08;;;;;;;21.17;12.20;;;19.00;99.90;;;;;;6149907;23;20175;-90
2023/10/10 09:00:35;;;;;;;28.40;14.93;;;19.10;99.90;;;;;;6126388;23;20482;-91
2023/10/10 09:03:01;;;;;;;31.43;14.27;;;19.10;99.90;;;;;;6149307;23;20191;-91
2023/10/10 09:05:28;;;;;;;28.90;14.17;;;19.10;99.90;;;;;;6125354;23;20286;-91
2023/10/10 09:07:55;;;;;;;34.47;13.07;;;19.40;99.90;;;;;;6125693;23;20723;-90
2023/10/10 09:10:39;;;;;;;22.97;12.17;;;19.40;99.90;;;;;;6124833;23;20219;-91
2023/10/10 09:13:07;;;;;;;18.17;9.87;;;19.50;99.90;;;;;;6128108;23;20206;-89
2023/10/10 09:15:34;;;;;;;20.93;11.73;;;19.60;99.90;;;;;;6126383;23;20166;-90
2023/10/10 09:18:22;;;;;;;32.50;13.33;;;19.80;99.90;;;;;;6150471;23;20477;-92
2023/10/10 09:20:53;;;;;;;21.80;10.67;;;19.80;99.90;;;;;;6150983;23;20215;-93
2023/10/10 09:23:24;;;;;;;17.63;10.40;;;19.80;99.90;;;;;;6151015;23;20187;-92
2023/10/10 09:28:58;;;;;;;20.87;10.93;;;19.80;99.90;;;;;;6150812;23;20257;-93
2023/10/10 09:31:31;;;;;;;14.17;8.57;;;19.70;99.90;;;;;;6127042;23;20229;-93
2023/10/10 09:34:02;;;;;;;24.90;12.37;;;19.60;99.90;;;;;;6150902;23;20573;-93
2023/10/10 09:36:28;;;;;;;24.57;13.67;;;19.50;99.90;;;;;;6151280;23;20154;-92
2023/10/10 09:39:08;;;;;;;23.87;11.67;;;19.60;99.90;;;;;;6126117;23;20207;-94
2023/10/10 09:42:00;;;;;;;25.17;14.37;;;19.80;99.90;;;;;;6128488;23;20281;-92
2023/10/10 09:49:46;;;;;;;22.27;11.53;;;20.10;99.90;;;;;;6151527;23;20211;-92
2023/10/10 09:57:42;;;;;;;24.87;10.30;;;20.50;99.90;;;;;;6152739;23;20572;-93
2023/10/10 10:00:15;;;;;;;22.07;12.50;;;20.40;99.90;;;;;;6125615;23;20250;-92
2023/10/10 10:02:48;;;;;;;20.80;12.17;;;20.60;99.90;;;;;;6126194;23;20745;-91
2023/10/10 10:05:18;;;;;;;22.70;12.73;;;20.50;99.90;;;;;;6125821;23;20644;-92
2023/10/10 10:08:00;;;;;;;21.63;11.90;;;20.50;99.90;;;;;;6150506;23;20195;-94
2023/10/10 10:10:52;;;;;;;19.73;11.70;;;20.60;99.90;;;;;;6150371;23;20281;-93
2023/10/10 10:13:54;;;;;;;19.77;12.13;;;20.80;99.90;;;;;;6150363;23;20199;-92
2023/10/10 10:16:25;;;;;;;20.80;11.00;;;21.20;99.90;;;;;;6037931;23;21099;-93
2023/10/10 10:19:11;;;;;;;19.63;13.03;;;21.40;99.90;;;;;;6131092;23;20214;-91
2023/10/10 10:21:52;;;;;;;23.57;14.60;;;21.40;99.90;;;;;;6130076;23;20584;-93
2023/10/10 10:24:28;;;;;;;21.33;11.07;;;21.40;99.90;;;;;;6149749;23;20201;-91
2023/10/10 10:29:53;;;;;;;21.00;12.10;;;20.90;99.90;;;;;;6150622;23;20211;-91
2023/10/10 10:32:23;;;;;;;13.23;8.40;;;20.90;99.90;;;;;;6125264;23;20258;-92
2023/10/10 10:34:56;;;;;;;19.00;11.57;;;20.80;99.90;;;;;;6149680;23;20199;-92
2023/10/10 10:37:28;;;;;;;16.53;9.87;;;20.70;99.90;;;;;;6126460;23;20251;-92
2023/10/10 10:42:46;;;;;;;20.97;11.60;;;20.90;99.90;;;;;;6150216;23;20159;-92
2023/10/10 10:45:37;;;;;;;21.23;11.77;;;20.80;99.90;;;;;;6124757;23;20203;-92
2023/10/10 10:48:29;;;;;;;21.77;11.10;;;21.10;99.90;;;;;;6149859;23;20199;-90
2023/10/10 10:51:22;;;;;;;17.23;10.30;;;21.20;99.90;;;;;;6149737;23;20544;-91
2023/10/10 10:53:56;;;;;;;21.98;10.27;;;21.20;99.90;;;;;;6149221;23;20199;-93
2023/10/10 11:01:29;;;;;;;18.40;11.13;;;21.80;99.90;;;;;;6149724;23;20206;-92
2023/10/10 11:03:56;;;;;;;15.02;9.50;;;22.20;99.90;;;;;;6150107;23;20171;-92
2023/10/10 11:06:26;;;;;;;18.20;9.82;;;22.40;99.90;;;;;;6150399;23;20182;-93
2023/10/10 11:08:52;;;;;;;15.82;8.25;;;22.90;99.90;;;;;;6149900;23;20211;-91
2023/10/10 11:14:00;;;;;;;21.00;9.90;;;23.20;99.90;;;;;;6150047;23;20195;-91
2023/10/10 11:16:38;;;;;;;18.88;8.90;;;23.90;99.90;;;;;;6124515;23;20235;-90
2023/10/10 11:22:00;;;;;;;16.73;9.27;;;24.20;99.90;;;;;;6151047;23;20151;-92
2023/10/10 11:24:31;;;;;;;11.73;7.95;;;24.40;99.90;;;;;;6126751;23;20313;-91
2023/10/10 11:27:22;;;;;;;17.30;7.88;;;24.00;99.90;;;;;;6124969;23;20814;-91
2023/10/10 11:30:03;;;;;;;16.00;7.65;;;24.10;99.90;;;;;;6150496;23;20245;-91
2023/10/10 11:32:45;;;;;;;11.48;6.35;;;24.00;99.90;;;;;;6149459;23;20525;-90
2023/10/10 11:37:59;;;;;;;13.88;7.25;;;23.80;99.90;;;;;;6130171;23;20702;-92
2023/10/10 11:40:37;;;;;;;9.95;7.28;;;23.80;99.90;;;;;;6151046;23;20191;-92
2023/10/10 11:43:11;;;;;;;15.70;7.93;;;23.80;99.90;;;;;;6126536;23;20267;-91
2023/10/10 11:45:56;;;;;;;17.55;7.95;;;23.50;99.90;;;;;;6152610;23;20158;-90
2023/10/10 11:48:24;;;;;;;14.60;6.70;;;23.50;99.90;;;;;;6150537;23;20623;-93
2023/10/10 11:50:51;;;;;;;20.58;7.20;;;23.20;99.90;;;;;;6150464;23;20587;-93
2023/10/10 11:53:23;;;;;;;15.20;7.10;;;23.10;99.90;;;;;;6150656;23;20642;-89
2023/10/10 11:55:52;;;;;;;12.45;6.97;;;23.00;99.90;;;;;;6151037;23;20187;-91
2023/10/10 11:58:18;;;;;;;12.48;6.97;;;23.20;99.90;;;;;;6127359;23;20203;-90
2023/10/10 12:01:05;;;;;;;12.27;7.60;;;23.00;99.90;;;;;;6152176;23;20167;-93
2023/10/10 12:06:26;;;;;;;20.05;6.72;;;22.90;99.90;;;;;;6150826;23;20191;-94
2023/10/10 12:08:53;;;;;;;9.25;6.07;;;22.70;99.90;;;;;;6150898;23;20282;-92
2023/10/10 12:11:20;;;;;;;14.98;7.30;;;22.40;99.90;;;;;;6153145;23;20227;-91
2023/10/10 12:13:48;;;;;;;9.18;5.40;;;22.40;99.90;;;;;;6150826;23;20275;-92
2023/10/10 12:16:17;;;;;;;17.05;6.00;;;22.10;99.90;;;;;;6151505;23;24921;-93
2023/10/10 12:18:44;;;;;;;14.48;6.60;;;22.10;99.90;;;;;;6128351;23;21082;-93
2023/10/10 12:21:19;;;;;;;11.48;6.55;;;21.90;99.90;;;;;;6150936;23;20210;-93
2023/10/10 12:23:48;;;;;;;10.82;6.20;;;21.90;99.90;;;;;;6151685;23;20713;-92
2023/10/10 12:26:14;;;;;;;7.25;5.05;;;21.90;99.90;;;;;;6151233;23;20203;-93
2023/10/10 12:28:40;;;;;;;8.93;5.20;;;21.90;99.90;;;;;;6126475;23;20209;-95
2023/10/10 12:31:08;;;;;;;15.95;6.70;;;21.80;99.90;;;;;;6125948;23;20160;-94
2023/10/10 12:33:37;;;;;;;12.05;6.18;;;22.00;99.90;;;;;;6126715;23;20170;-92
2023/10/10 12:36:09;;;;;;;14.30;5.55;;;22.40;99.90;;;;;;6126773;23;20207;-92
2023/10/10 12:38:37;;;;;;;12.05;6.35;;;22.70;99.90;;;;;;6151406;23;20222;-91
2023/10/10 12:41:05;;;;;;;9.07;4.88;;;22.80;99.90;;;;;;6128369;23;20196;-93
2023/10/10 12:43:31;;;;;;;10.50;5.50;;;22.60;99.90;;;;;;6151089;23;20217;-94
2023/10/10 12:46:00;;;;;;;11.48;5.95;;;22.30;99.90;;;;;;6126421;23;20166;-91
2023/10/10 12:48:26;;;;;;;11.55;5.95;;;22.10;99.90;;;;;;6151792;23;20167;-92
2023/10/10 12:50:52;;;;;;;16.17;6.47;;;21.90;99.90;;;;;;6149773;23;20197;-90
2023/10/10 12:53:19;;;;;;;9.57;6.60;;;21.70;99.90;;;;;;6150235;23;20219;-92
2023/10/10 12:55:50;;;;;;;6.90;4.50;;;21.60;99.90;;;;;;6126045;23;20215;-92
2023/10/10 12:58:22;;;;;;;11.02;6.40;;;21.30;99.90;;;;;;6150575;23;20195;-93
2023/10/10 13:00:52;;;;;;;17.70;6.57;;;21.30;99.90;;;;;;6151488;23;20508;-92
2023/10/10 13:03:29;;;;;;;16.00;5.97;;;21.40;99.90;;;;;;6150709;23;20579;-93
2023/10/10 13:06:00;;;;;;;15.73;7.07;;;21.30;99.90;;;;;;6150573;23;20207;-93
2023/10/10 13:08:39;;;;;;;17.73;6.63;;;21.30;99.90;;;;;;6126826;23;20199;-92
2023/10/10 13:11:14;;;;;;;10.03;7.23;;;21.60;99.90;;;;;;6150172;23;20847;-92
2023/10/10 13:13:52;;;;;;;8.80;5.93;;;21.80;99.90;;;;;;6127018;23;20195;-92
2023/10/10 13:19:06;;;;;;;16.42;7.80;;;22.00;99.90;;;;;;6129353;23;20152;-93
2023/10/10 13:21:38;;;;;;;12.95;6.82;;;22.00;99.90;;;;;;6126683;23;20420;-92
2023/10/10 13:24:09;;;;;;;16.73;7.73;;;22.00;99.90;;;;;;6149607;23;20210;-91
2023/10/10 13:26:45;;;;;;;16.90;7.72;;;22.00;99.90;;;;;;6149996;23;20199;-92
2023/10/10 13:29:11;;;;;;;14.98;7.70;;;22.00;99.90;;;;;;6150405;23;20230;-92
2023/10/10 13:31:38;;;;;;;10.70;7.65;;;21.70;99.90;;;;;;6125264;23;20249;-88
2023/10/10 13:34:04;;;;;;;15.80;6.87;;;21.60;99.90;;;;;;6125195;23;20238;-88
2023/10/10 13:36:32;;;;;;;11.90;6.97;;;21.60;99.90;;;;;;6150130;23;20154;-91
2023/10/10 13:38:59;;;;;;;14.43;7.97;;;21.60;99.90;;;;;;6125601;23;20199;-91
2023/10/10 13:41:29;;;;;;;12.20;8.25;;;21.50;99.90;;;;;;6149352;23;20207;-88
2023/10/10 13:44:03;;;;;;;17.00;7.55;;;21.40;99.90;;;;;;6149732;23;20199;-91
2023/10/10 13:46:37;;;;;;;12.15;8.27;;;21.50;99.90;;;;;;6149662;23;20218;-92
2023/10/10 13:49:04;;;;;;;18.07;10.23;;;21.70;99.90;;;;;;6149958;23;20177;-91
2023/10/10 13:51:39;;;;;;;22.70;11.23;;;21.70;99.90;;;;;;6150244;23;20166;-92
2023/10/10 13:54:05;;;;;;;20.60;11.30;;;21.70;99.90;;;;;;6149442;23;20253;-92
2023/10/10 13:56:31;;;;;;;17.60;10.47;;;21.70;99.90;;;;;;6123388;23;20199;-90
2023/10/10 13:59:00;;;;;;;19.83;9.68;;;21.80;99.90;;;;;;6124878;23;20195;-91
2023/10/10 14:01:29;;;;;;;20.83;10.75;;;21.70;99.90;;;;;;6149556;23;20199;-90
2023/10/10 14:04:03;;;;;;;20.40;11.70;;;21.90;99.90;;;;;;6125944;23;20679;-92
2023/10/10 14:06:45;;;;;;;26.50;12.90;;;21.90;99.90;;;;;;6150054;23;20244;-91
2023/10/10 14:09:11;;;;;;;25.98;15.35;;;21.80;99.90;;;;;;6129133;23;20640;-92
2023/10/10 14:11:38;;;;;;;24.30;13.77;;;21.70;99.90;;;;;;6149401;23;20222;-92
2023/10/10 14:14:06;;;;;;;26.40;13.57;;;21.70;99.90;;;;;;6125708;23;20228;-92
2023/10/10 14:16:32;;;;;;;18.93;12.47;;;21.60;99.90;;;;;;6149351;23;20183;-94
2023/10/10 14:19:01;;;;;;;23.10;13.23;;;21.70;99.90;;;;;;6149665;23;20163;-92
2023/10/10 14:21:27;;;;;;;23.93;13.13;;;21.70;99.90;;;;;;6126294;23;20167;-92
2023/10/10 14:24:04;;;;;;;28.40;13.13;;;21.80;99.90;;;;;;6125049;23;20286;-92
2023/10/10 14:26:33;;;;;;;23.27;13.68;;;21.80;99.90;;;;;;6149558;23;20578;-90
2023/10/10 14:29:05;;;;;;;23.00;12.02;;;21.90;99.90;;;;;;6149392;23;20660;-92
2023/10/10 14:31:31;;;;;;;19.42;13.43;;;21.90;99.90;;;;;;6149481;23;20183;-89
2023/10/10 14:34:02;;;;;;;17.93;11.00;;;21.90;99.90;;;;;;6135759;23;20159;-91
2023/10/10 14:36:29;;;;;;;24.27;10.68;;;21.80;99.90;;;;;;6174702;23;20147;-92
2023/10/10 14:38:57;;;;;;;17.40;11.20;;;21.70;99.90;;;;;;6124308;23;20202;-90
2023/10/10 14:41:32;;;;;;;19.33;10.32;;;21.70;99.90;;;;;;6124410;23;20218;-90
2023/10/10 14:44:01;;;;;;;15.90;10.43;;;21.70;99.90;;;;;;6149094;23;20195;-93
2023/10/10 14:46:32;;;;;;;22.20;10.32;;;21.60;99.90;;;;;;6124514;23;20278;-90
2023/10/10 14:49:16;;;;;;;25.73;11.13;;;21.50;99.90;;;;;;6149099;23;20187;-89
2023/10/10 14:51:48;;;;;;;19.38;10.15;;;21.40;99.90;;;;;;6128166;23;20195;-90
2023/10/10 14:54:17;;;;;;;15.15;9.82;;;21.40;99.90;;;;;;6125091;23;20651;-90
2023/10/10 14:56:46;;;;;;;18.33;11.00;;;21.30;99.90;;;;;;6149408;23;20212;-91
2023/10/10 14:59:22;;;;;;;17.80;9.90;;;21.10;99.90;;;;;;6149381;23;20195;-90
2023/10/10 15:01:48;;;;;;;22.37;10.80;;;21.10;99.90;;;;;;6125231;23;20199;-90
2023/10/10 15:04:19;;;;;;;18.52;11.45;;;21.00;99.90;;;;;;6125146;23;20217;-91
2023/10/10 15:06:46;;;;;;;20.30;12.40;;;20.90;99.90;;;;;;6149432;23;20187;-91
2023/10/10 15:09:19;;;;;;;20.23;12.07;;;20.90;99.90;;;;;;6124988;23;20213;-91
2023/10/10 15:11:46;;;;;;;20.50;11.43;;;20.80;99.90;;;;;;6150893;23;20195;-90
2023/10/10 15:14:13;;;;;;;20.90;12.30;;;20.80;99.90;;;;;;6150845;23;20306;-88
2023/10/10 15:16:41;;;;;;;28.47;11.73;;;20.90;99.90;;;;;;6137965;23;20191;-90
2023/10/10 15:19:08;;;;;;;18.80;11.87;;;20.90;99.90;;;;;;6126413;23;20214;-89
2023/10/10 15:21:38;;;;;;;21.63;12.13;;;20.80;99.90;;;;;;6151779;23;20178;-88
2023/10/10 15:24:15;;;;;;;17.90;11.37;;;20.70;99.90;;;;;;6126210;23;20278;-89
2023/10/10 15:26:47;;;;;;;24.40;13.03;;;20.70;99.90;;;;;;6150916;23;20206;-93
2023/10/10 15:29:16;;;;;;;26.73;13.97;;;20.60;99.90;;;;;;6128023;23;20213;-89
2023/10/10 15:31:42;;;;;;;25.10;11.20;;;20.50;99.90;;;;;;6151809;23;20195;-92
2023/10/10 15:34:13;;;;;;;19.27;12.07;;;20.40;99.90;;;;;;6123861;23;20638;-92
2023/10/10 15:36:43;;;;;;;28.80;12.90;;;20.40;99.90;;;;;;6127542;23;20143;-92
2023/10/10 15:39:10;;;;;;;18.27;11.10;;;20.40;99.90;;;;;;6150371;23;20211;-92
2023/10/10 15:41:42;;;;;;;24.00;13.60;;;20.40;99.90;;;;;;6150152;23;20655;-92
2023/10/10 15:44:12;;;;;;;21.97;11.93;;;20.30;99.90;;;;;;6149885;23;20222;-92
2023/10/10 15:46:38;;;;;;;23.43;12.67;;;20.30;99.90;;;;;;6149936;23;20282;-92
2023/10/10 15:49:12;;;;;;;22.57;12.30;;;20.20;99.90;;;;;;6125480;23;20188;-91
2023/10/10 15:51:38;;;;;;;23.23;12.50;;;20.10;99.90;;;;;;6127158;23;20160;-91
2023/10/10 15:54:05;;;;;;;17.87;9.40;;;20.10;99.90;;;;;;6148773;23;20679;-91
2023/10/10 15:56:31;;;;;;;22.53;11.63;;;20.10;99.90;;;;;;6148347;23;20201;-93
2023/10/10 15:58:57;;;;;;;25.00;12.33;;;20.10;99.90;;;;;;6149512;23;20195;-91
2023/10/10 16:01:28;;;;;;;19.60;10.80;;;20.10;99.90;;;;;;6151137;23;20217;-90
2023/10/10 16:04:12;;;;;;;21.63;10.90;;;20.10;99.90;;;;;;6151811;23;20632;-92
2023/10/10 16:06:39;;;;;;;12.40;8.20;;;20.10;99.90;;;;;;6149420;23;20255;-91